createdAt,value
2022-08-28T00:00:41.248Z,22.06
2022-08-28T00:03:56.274Z,22.02
2022-08-28T00:06:59.690Z,22.17
2022-08-28T00:10:05.375Z,21.89
2022-08-28T00:13:10.403Z,21.79
2022-08-28T00:16:13.619Z,21.70
2022-08-28T00:19:17.970Z,21.67
2022-08-28T00:22:21.035Z,21.47
2022-08-28T00:25:26.620Z,21.48
2022-08-28T00:28:30.641Z,21.43
2022-08-28T00:31:34.857Z,21.32
2022-08-28T00:34:38.901Z,21.26
2022-08-28T00:37:41.892Z,21.24
2022-08-28T00:40:46.715Z,21.30
2022-08-28T00:43:50.097Z,21.24
2022-08-28T00:46:56.032Z,21.34
2022-08-28T00:49:58.839Z,21.52
2022-08-28T00:53:01.962Z,21.30
2022-08-28T00:56:12.830Z,21.11
2022-08-28T00:59:19.746Z,21.16
2022-08-28T01:02:22.612Z,21.18
2022-08-28T01:05:26.507Z,21.04
2022-08-28T01:08:31.367Z,20.61
2022-08-28T01:11:34.832Z,20.62
2022-08-28T01:14:40.700Z,20.53
2022-08-28T01:17:48.712Z,20.63
2022-08-28T01:21:20.247Z,20.51
2022-08-28T01:24:24.197Z,20.48
2022-08-28T01:27:27.831Z,20.64
2022-08-28T01:30:32.190Z,20.33
2022-08-28T01:33:35.223Z,20.34
2022-08-28T01:36:39.293Z,20.61
2022-08-28T01:39:42.081Z,20.71
2022-08-28T01:42:47.045Z,20.86
2022-08-28T01:45:53.927Z,20.83
2022-08-28T01:49:00.761Z,20.37
2022-08-28T01:52:07.018Z,20.28
2022-08-28T01:55:12.762Z,19.88
2022-08-28T01:58:18.744Z,20.34
2022-08-28T02:01:23.490Z,20.45
2022-08-28T02:04:32.153Z,20.54
2022-08-28T02:07:35.380Z,20.60
2022-08-28T02:10:47.129Z,20.46
2022-08-28T02:13:59.945Z,20.47
2022-08-28T02:17:05.873Z,20.61
2022-08-28T02:20:10.077Z,20.67
2022-08-28T02:23:13.982Z,20.73
2022-08-28T02:26:17.465Z,20.75
2022-08-28T02:29:20.802Z,20.78
2022-08-28T02:32:24.011Z,20.86
2022-08-28T02:35:27.270Z,20.84
2022-08-28T02:38:31.339Z,20.81
2022-08-28T02:41:38.648Z,20.90
2022-08-28T02:44:42.772Z,20.87
2022-08-28T02:48:20.077Z,20.58
2022-08-28T02:51:24.472Z,20.65
2022-08-28T02:54:27.769Z,20.64
2022-08-28T02:57:32.329Z,20.13
2022-08-28T03:00:35.901Z,19.80
2022-08-28T03:15:46.765Z,19.71
2022-08-28T03:18:55.326Z,19.53
2022-08-28T03:21:58.260Z,19.54
2022-08-28T03:25:01.412Z,19.62
2022-08-28T03:32:11.022Z,19.90
2022-08-28T03:35:24.147Z,19.95
2022-08-28T03:38:28.161Z,19.65
2022-08-28T03:41:32.156Z,19.64
2022-08-28T03:44:38.313Z,19.53
2022-08-28T03:47:42.066Z,19.30
2022-08-28T03:50:47.543Z,19.37
2022-08-28T03:53:52.859Z,19.33
2022-08-28T03:56:56.019Z,19.23
2022-08-28T04:00:00.177Z,19.15
2022-08-28T04:31:32.335Z,18.94
2022-08-28T05:07:01.798Z,19.20
2022-08-28T05:10:12.559Z,19.45
2022-08-28T05:13:57.073Z,19.35
2022-08-28T05:17:40.306Z,19.44
2022-08-28T05:48:30.387Z,19.67
2022-08-28T05:51:36.832Z,20.00
2022-08-28T05:54:46.472Z,20.05
2022-08-28T05:57:52.628Z,20.02
2022-08-28T06:00:59.949Z,20.09
2022-08-28T06:17:01.811Z,20.31
2022-08-28T06:21:02.894Z,20.36
2022-08-28T06:45:49.000Z,20.44
2022-08-28T06:46:01.774Z,21.06
2022-08-28T06:49:32.168Z,21.42
2022-08-28T06:52:35.532Z,21.89
2022-08-28T07:15:41.744Z,22.67
2022-08-28T07:18:49.663Z,22.72
2022-08-28T07:21:52.845Z,23.28
2022-08-28T08:35:14.441Z,23.56
2022-08-28T08:38:59.522Z,23.42
2022-08-28T08:42:55.806Z,23.50
2022-08-28T09:02:46.126Z,24.08
2022-08-28T09:05:55.127Z,24.41
2022-08-28T09:09:01.139Z,24.31
2022-08-28T09:12:14.982Z,24.07
2022-08-28T09:15:33.614Z,24.74
2022-08-28T09:18:36.459Z,24.59
2022-08-28T09:21:45.207Z,24.50
2022-08-28T09:24:48.013Z,24.49
2022-08-28T09:27:54.959Z,24.48
2022-08-28T09:31:01.778Z,24.50
2022-08-28T09:34:38.762Z,24.34
2022-08-28T09:37:44.935Z,24.58
2022-08-28T09:41:08.989Z,24.77
2022-08-28T09:44:32.054Z,24.93
2022-08-28T09:52:32.114Z,25.32
2022-08-28T09:55:57.089Z,25.17
2022-08-28T10:04:06.538Z,25.18
2022-08-28T10:40:36.576Z,26.52
2022-08-28T10:44:02.992Z,26.30
2022-08-28T11:02:12.874Z,26.85
2022-08-28T11:30:11.322Z,27.94
2022-08-28T11:33:37.833Z,28.05
2022-08-28T11:44:26.327Z,28.91
2022-08-28T11:47:45.702Z,29.17
2022-08-28T11:51:32.109Z,28.86
2022-08-28T11:55:00.789Z,29.55
2022-08-28T12:01:31.717Z,29.53
2022-08-28T12:06:23.204Z,29.34
2022-08-28T12:09:27.270Z,29.86
2022-08-28T12:12:33.020Z,30.08
2022-08-28T12:16:03.946Z,31.01
2022-08-28T12:19:08.407Z,31.12
2022-08-28T12:22:13.751Z,31.91
2022-08-28T12:25:25.354Z,31.54
2022-08-28T12:28:33.284Z,32.80
2022-08-28T12:32:13.318Z,33.27
2022-08-28T12:39:08.261Z,33.03
2022-08-28T12:42:17.374Z,32.63
2022-08-28T12:49:35.379Z,32.77
2022-08-28T12:52:48.477Z,33.64
2022-08-28T12:55:52.892Z,32.73
2022-08-28T12:59:37.674Z,32.94
2022-08-28T13:02:41.810Z,32.58
2022-08-28T13:05:55.327Z,33.36
2022-08-28T13:09:02.315Z,33.73
2022-08-28T13:12:07.361Z,33.77
2022-08-28T13:15:13.914Z,33.91
2022-08-28T13:18:50.094Z,33.42
2022-08-28T13:22:05.120Z,34.43
2022-08-28T13:25:16.824Z,34.14
2022-08-28T13:28:20.155Z,33.34
2022-08-28T13:31:30.609Z,33.81
2022-08-28T13:34:36.833Z,32.79
2022-08-28T13:37:49.550Z,32.22
2022-08-28T13:41:04.277Z,32.00
2022-08-28T13:44:08.854Z,31.37
2022-08-28T13:47:18.746Z,30.45
2022-08-28T13:54:05.043Z,30.49
2022-08-28T13:57:11.457Z,33.02
2022-08-28T14:00:16.024Z,33.98
2022-08-28T14:03:39.277Z,34.16
2022-08-28T14:06:46.095Z,33.85
2022-08-28T14:09:56.103Z,34.18
2022-08-28T14:13:02.410Z,33.47
2022-08-28T14:16:08.105Z,35.14
2022-08-28T14:19:36.997Z,34.73
2022-08-28T14:22:41.535Z,35.44
2022-08-28T14:25:45.896Z,36.03
2022-08-28T14:28:50.227Z,33.80
2022-08-28T14:31:53.177Z,34.17
2022-08-28T14:34:57.251Z,34.81
2022-08-28T14:38:00.072Z,35.04
2022-08-28T14:41:03.543Z,35.49
2022-08-28T14:44:06.346Z,35.09
2022-08-28T14:47:11.764Z,35.42
2022-08-28T14:50:16.662Z,33.31
2022-08-28T14:56:48.571Z,33.05
2022-08-28T15:00:15.409Z,31.50
2022-08-28T15:07:22.158Z,32.49
2022-08-28T15:10:51.391Z,32.59
2022-08-28T15:13:55.776Z,32.00
2022-08-28T15:17:48.350Z,31.53
2022-08-28T15:20:54.412Z,32.23
2022-08-28T15:23:58.076Z,32.80
2022-08-28T15:27:02.253Z,33.18
2022-08-28T15:30:30.487Z,32.42
2022-08-28T15:33:33.843Z,32.25
2022-08-28T15:36:55.204Z,32.95
2022-08-28T15:40:40.482Z,32.92
2022-08-28T15:43:47.724Z,32.79
2022-08-28T15:46:58.269Z,32.27
2022-08-28T15:50:11.298Z,32.64
2022-08-28T15:53:17.788Z,33.00
2022-08-28T15:56:35.211Z,32.48
2022-08-28T15:59:49.070Z,33.60
2022-08-28T16:03:00.083Z,32.97
2022-08-28T16:06:04.553Z,31.60
2022-08-28T16:09:09.275Z,32.20
2022-08-28T16:12:45.259Z,30.83
2022-08-28T16:16:04.309Z,29.53
2022-08-28T16:19:11.656Z,29.65
2022-08-28T16:22:16.684Z,29.87
2022-08-28T16:25:35.749Z,30.03
2022-08-28T16:28:39.389Z,29.97
2022-08-28T16:32:03.288Z,29.88
2022-08-28T16:35:07.469Z,30.67
2022-08-28T16:38:12.383Z,30.25
2022-08-28T16:41:24.277Z,30.46
2022-08-28T16:44:30.926Z,29.87
2022-08-28T16:47:36.584Z,29.09
2022-08-28T16:50:48.497Z,29.08
2022-08-28T16:53:53.841Z,28.11
2022-08-28T16:57:06.502Z,27.50
2022-08-28T17:00:15.324Z,27.56
2022-08-28T17:03:22.039Z,27.92
2022-08-28T17:06:33.404Z,27.01
2022-08-28T17:09:36.828Z,27.16
2022-08-28T17:12:40.647Z,27.20
2022-08-28T17:15:46.829Z,27.29
2022-08-28T17:18:52.417Z,26.86
2022-08-28T17:22:14.421Z,26.92
2022-08-28T17:25:17.978Z,26.68
2022-08-28T17:28:21.523Z,26.72
2022-08-28T17:31:24.688Z,26.51
2022-08-28T17:34:30.394Z,26.11
2022-08-28T17:37:38.194Z,26.24
2022-08-28T17:40:42.421Z,26.01
2022-08-28T17:43:45.726Z,25.82
2022-08-28T17:46:49.714Z,25.73
2022-08-28T17:49:53.120Z,25.81
2022-08-28T17:52:56.524Z,25.76
2022-08-28T17:55:59.809Z,25.84
2022-08-28T17:59:03.534Z,25.70
2022-08-28T18:02:07.424Z,25.49
2022-08-28T18:05:11.478Z,25.61
2022-08-28T18:08:15.148Z,25.54
2022-08-28T18:11:19.538Z,25.58
2022-08-28T18:14:22.695Z,25.50
2022-08-28T18:17:26.670Z,25.48
2022-08-28T18:20:30.954Z,25.41
2022-08-28T18:23:34.686Z,25.39
2022-08-28T18:26:37.679Z,25.37
2022-08-28T18:29:41.086Z,25.35
2022-08-28T18:32:44.412Z,25.23
2022-08-28T18:35:49.504Z,25.27
2022-08-28T18:38:52.855Z,24.96
2022-08-28T18:41:56.746Z,24.98
2022-08-28T18:45:00.680Z,24.97
2022-08-28T18:48:05.127Z,24.92
2022-08-28T18:51:08.922Z,24.83
2022-08-28T18:54:13.418Z,24.69
2022-08-28T18:57:19.067Z,24.58
2022-08-28T19:00:23.039Z,24.53
2022-08-28T19:03:26.064Z,24.51
2022-08-28T19:06:29.718Z,24.47
2022-08-28T19:09:34.903Z,24.55
2022-08-28T19:12:40.368Z,24.46
2022-08-28T19:15:43.352Z,24.25
2022-08-28T19:18:47.968Z,24.12
2022-08-28T19:21:54.229Z,23.96
2022-08-28T19:24:58.210Z,23.74
2022-08-28T19:28:02.056Z,23.59
2022-08-28T19:31:05.453Z,23.67
2022-08-28T19:34:11.743Z,23.54
2022-08-28T19:37:16.819Z,23.55
2022-08-28T19:40:21.355Z,23.61
2022-08-28T19:43:24.660Z,23.64
2022-08-28T19:46:46.525Z,23.57
2022-08-28T19:49:56.697Z,23.27
2022-08-28T19:53:02.271Z,23.20
2022-08-28T19:56:06.706Z,22.87
2022-08-28T19:59:10.284Z,22.65
2022-08-28T20:02:13.770Z,22.66
2022-08-28T20:05:17.269Z,22.62
2022-08-28T20:08:21.652Z,22.61
2022-08-28T20:11:29.073Z,22.61
2022-08-28T20:14:34.776Z,22.48
2022-08-28T20:17:44.209Z,22.42
2022-08-28T20:20:52.742Z,22.29
2022-08-28T20:23:55.913Z,22.32
2022-08-28T20:26:59.406Z,22.21
2022-08-28T20:30:07.134Z,22.23
2022-08-28T20:33:13.894Z,22.20
2022-08-28T20:36:21.349Z,22.11
2022-08-28T20:39:25.407Z,22.07
2022-08-28T20:42:31.763Z,22.02
2022-08-28T20:45:34.784Z,21.96
2022-08-28T20:48:40.621Z,21.93
2022-08-28T20:51:53.491Z,21.85
2022-08-28T20:54:58.186Z,21.86
2022-08-28T20:58:00.850Z,21.88
2022-08-28T21:01:04.932Z,21.91
2022-08-28T21:04:10.118Z,21.87
2022-08-28T21:07:20.450Z,21.73
2022-08-28T21:10:24.113Z,21.76
2022-08-28T21:13:29.327Z,21.87
2022-08-28T21:16:33.826Z,21.68
2022-08-28T21:19:40.576Z,21.71
2022-08-28T21:22:44.636Z,21.62
2022-08-28T21:25:48.522Z,21.68
2022-08-28T21:28:52.329Z,21.68
2022-08-28T21:31:56.761Z,21.74
2022-08-28T21:35:01.075Z,21.51
2022-08-28T21:38:05.136Z,21.55
2022-08-28T21:41:13.977Z,21.50
2022-08-28T21:44:17.671Z,21.45
2022-08-28T21:47:23.293Z,21.49
2022-08-28T21:50:30.589Z,21.43
2022-08-28T21:53:34.040Z,21.39
2022-08-28T21:56:36.946Z,21.33
2022-08-28T21:59:39.856Z,21.33
2022-08-28T22:02:42.993Z,21.26
2022-08-28T22:05:46.418Z,21.22
2022-08-28T22:08:49.826Z,21.15
2022-08-28T22:11:52.813Z,21.05
2022-08-28T22:14:55.760Z,21.05
2022-08-28T22:17:58.910Z,20.96
2022-08-28T22:21:27.716Z,21.00
2022-08-28T22:24:31.486Z,20.94
2022-08-28T22:27:35.341Z,20.86
2022-08-28T22:30:42.767Z,20.80
2022-08-28T22:33:46.386Z,20.77
2022-08-28T22:36:49.256Z,20.77
2022-08-28T22:39:54.536Z,20.77
2022-08-28T22:43:01.227Z,20.60
2022-08-28T22:46:05.006Z,20.63
2022-08-28T22:49:10.243Z,20.57
2022-08-28T22:52:13.502Z,20.62
2022-08-28T22:55:17.088Z,20.67
2022-08-28T22:58:19.649Z,20.56
2022-08-28T23:01:23.757Z,20.46
2022-08-28T23:04:26.823Z,20.49
2022-08-28T23:07:29.941Z,20.46
2022-08-28T23:10:57.458Z,20.39
2022-08-28T23:13:55.310Z,20.39
2022-08-28T23:16:58.126Z,20.24
2022-08-28T23:20:01.005Z,20.28
2022-08-28T23:23:03.805Z,20.14
2022-08-28T23:26:08.851Z,20.22
2022-08-28T23:29:11.895Z,20.20
2022-08-28T23:32:15.035Z,20.17
2022-08-28T23:35:19.537Z,20.15
2022-08-28T23:38:22.905Z,20.13
2022-08-28T23:41:26.577Z,20.05
2022-08-28T23:48:26.924Z,19.97
2022-08-28T23:51:52.476Z,19.86
2022-08-28T23:54:55.346Z,19.91
2022-08-28T23:57:58.559Z,19.84
